Fort Steilacoom, Washington
Current Conditions -  °F | °C
As of 7:58 PM on Thursday 27 Nov 2014 (Local Time) from KGRF Reporting Station
Drizzle Drizzle  
Wind Chill: 53°   Ceiling: 3200
Heat Index: 53°   Visibility: 10mi
Dew Point: 53°   Wind: 13mph
Humidity: 98%   Direction: 170°S
Pressure: 29.76"   Gusts: NA
Location:  47.1451°N, 122.578°W
Report Text: KGRF 280358Z AUTO 17011KT 10SM DZ FEW010 BKN032 BKN043 12/12 A2976 RMK AO2 RAB0329E0335 SLP081 P0000 T01180115 $
Loading
Personal Weather Stations






























Interactive Weather Map New forecast layout! Learn more

10-Day Weather Forecast

Advertisements
Track Severe Weather on mobile